Flight Track Log - Related Links

Times and Time Zones

All times are in EDT time to prevent confusion due to time zone crossing. See the N881FT flight status page for this flight to view local times or setup timezone preferences in your user account.

Time Position Orientation Groundspeed Altitude Reporting Facility
EDT Latitude Longitude Course Direction KTS MPH feet Rate Location/Type
Sat 03:39:33 PM 27.8667 -82.7000 270° West 119 137 1,700  Level Tampa TRACON
Sat 03:40:33 PM 27.8667 -82.7500 241° Southwest 138 159 1,700 100 Level Tampa TRACON
Sat 03:41:33 PM 27.8500 -82.7833 336° Northwest 135 155 1,900 400 Climbing Tampa TRACON
Sat 03:42:33 PM 27.8833 -82.8000 360° North 118 136 2,500 600 Climbing Tampa TRACON
Sat 03:43:33 PM 27.9167 -82.8000 60° Northeast 104 120 3,100 250 Climbing Tampa TRACON
Sat 03:44:33 PM 27.9333 -82.7667 24° Northeast 125 144 3,000 50 Descending Tampa TRACON
Sat 03:45:33 PM 27.9667 -82.7500 90° East 117 135 3,200 50 Climbing Tampa TRACON
Sat 03:46:33 PM 27.9667 -82.7167 90° East 124 143 3,100 50 Descending Tampa TRACON
Sat 03:47:33 PM 27.9667 -82.6667 60° Northeast 116 133 3,300 298 Climbing Tampa TRACON
Sat 03:48:34 PM 27.9833 -82.6333 90° East 114 131 3,700 450 Climbing Tampa TRACON
Sat 03:49:33 PM 27.9833 -82.6000 90° East 120 138 4,200 200 Climbing Tampa TRACON
Sat 03:50:34 PM 27.9833 -82.5667 90° East 128 147 4,100 -99 Descending Tampa TRACON
Sat 03:51:34 PM 27.9833 -82.5167 90° East 120 138 4,000 -100 Descending Tampa TRACON
Sat 03:52:34 PM 27.9833 -82.4833 120° Southeast 118 136 3,900 100 Descending Tampa TRACON
Sat 03:53:34 PM 27.9667 -82.4500 60° Northeast 112 129 4,200 211 Climbing Tampa TRACON
Sat 03:54:28 PM 27.9833 -82.4167 90° East 116 133 4,300 316 Climbing Tampa TRACON
Sat 03:55:28 PM 27.9833 -82.3833 90° East 114 131 4,800 400 Climbing Tampa TRACON
Sat 03:56:28 PM 27.9833 -82.3500 90° East 118 136 5,100 143 Climbing Tampa TRACON
Sat 03:57:34 PM 27.9833 -82.3000 90° East 120 138 5,100  Level Tampa TRACON
Sat 03:58:28 PM 27.9833 -82.2667 90° East 127 146 5,100  Level Tampa TRACON
Sat 03:59:34 PM 27.9833 -82.2167 90° East 129 148 5,100  Level Tampa TRACON
Sat 04:00:34 PM 27.9833 -82.1833 120° Southeast 128 147 5,100  Level Tampa TRACON
Sat 04:01:34 PM 27.9667 -82.1500 60° Northeast 125 144 5,100  Level Tampa TRACON
Sat 04:02:28 PM 27.9833 -82.1167 79° East 128 147 5,100  Level Tampa TRACON
Sat 04:04:50 PM 28.0000 -82.0167 90° East 129 148 5,100 -29 Level Orlando TRACON
Sat 04:05:55 PM 28.0000 -81.9667 90° East 128 147 5,000  Descending Orlando TRACON
Sat 04:06:56 PM 28.0000 -81.9333 90° East 126 145 5,100 50 Climbing Orlando TRACON
Sat 04:07:56 PM 28.0000 -81.9000 90° East 128 147 5,100 -50 Level Orlando TRACON
Sat 04:08:56 PM 28.0000 -81.8500 60° Northeast 126 145 5,000  Descending Orlando TRACON
Sat 04:09:56 PM 28.0167 -81.8167 90° East 121 139 5,100 50 Climbing Orlando TRACON
Sat 04:10:56 PM 28.0167 -81.7833 69° East 128 147 5,100  Level Orlando TRACON
Sat 04:11:50 PM 28.0333 -81.7333 90° East 128 147 5,100 -50 Level Orlando TRACON
Sat 04:12:56 PM 28.0333 -81.7000 90° East 125 144 5,000 -50 Descending Orlando TRACON
Sat 04:13:51 PM 28.0333 -81.6667 90° East 123 142 5,000  Level Orlando TRACON
Sat 04:14:51 PM 28.0333 -81.6333 90° East 120 138 5,000 50 Level Orlando TRACON
Sat 04:15:51 PM 28.0333 -81.5833 90° East 121 139 5,100 53 Climbing Orlando TRACON
Sat 04:16:45 PM 28.0333 -81.5500 60° Northeast 123 142 5,100  Level Orlando TRACON
Sat 04:17:51 PM 28.0500 -81.5167 90° East 129 148 5,100 -429 Level Orlando TRACON
Sat 04:18:51 PM 28.0500 -81.4667 60° Northeast 123 142 4,200 -800 Descending Orlando TRACON
Sat 04:19:51 PM 28.0667 -81.4333 90° East 120 138 3,500 -550 Descending Orlando TRACON
Sat 04:20:51 PM 28.0667 -81.4000 90° East 118 136 3,100 -200 Descending Orlando TRACON
Sat 04:21:51 PM 28.0667 -81.3667 90° East 120 138 3,100 -50 Level Orlando TRACON
Sat 04:22:51 PM 28.0667 -81.3167 60° Northeast 119 137 3,000 -50 Descending Orlando TRACON
Sat 04:23:52 PM 28.0833 -81.2833 90° East 113 130 3,000 50 Level Orlando TRACON
Sat 04:24:52 PM 28.0833 -81.2500 90° East 110 127 3,100 95 Climbing Orlando TRACON
Sat 04:25:58 PM 28.0833 -81.2167 90° East 110 127 3,200 -48 Climbing Orlando TRACON
Sat 04:26:58 PM 28.0833 -81.1833 120° Southeast 116 133 3,000 -50 Descending Orlando TRACON
Sat 04:27:58 PM 28.0667 -81.1500 69° East 115 132 3,100 -48 Climbing Orlando TRACON
Sat 04:29:04 PM 28.0833 -81.1000 90° East 111 128 2,900 -50 Descending Orlando TRACON
Sat 04:29:58 PM 28.0833 -81.0667 90° East 111 128 3,000 111 Climbing Orlando TRACON

Login

Don't have an account? Register now (free) for customized features, flight alerts, and more!